Pagrindinis puslapis
METAR-TAF:

METAR-TAF

Oro uostai :

Tojama, Japonija

platuma: 36-39N, ilguma: 137-11E, Aukštis: 24 m

Dabartinis oras

Ataskaita buvo paskelbta 55 minutes, ne 01:00 UTC
Vėjas 5 kt iš Pietvakarių, svyruoja nuo Pietų ir Vakarų
Temperatūra 32°C
Drėgmė 63%
Slėgis 1010 hPa
Matomumas 10 km arba daugiau
Mažai debesys ne aukštis 3000 ft
Išsisklaidę debesys ne aukštis 6000 ft
Su prošvaistėmis ne aukštis 16000 ft

METAR: RJNT 090100Z 22005KT 170V280 9999 FEW030 SCT060 BKN160 32/24 Q1010

Laikas: 10:55 (01:55 UTC)

Prognozė

Ataskaita buvo paskelbta 2 valandos ir 49 minutes, ne 23:06 UTC
Prognozė galioja nuo 09 metu 00 UTC su 10 metu 06 UTC
Vėjas 6 kt iš Vakarų/Pietvakarių
Matomumas 10 km arba daugiau
Mažai debesys ne aukštis 3000 ft
Išsisklaidę debesys ne aukštis 6000 ft
Tapsmas
nuo 09 metu 02 UTC su 09 metu 04 UTC
Vėjas 6 kt iš Šiaurės Vakarų
Tapsmas
nuo 09 metu 10 UTC su 09 metu 12 UTC
Vėjas 8 kt iš Pietų

TAF: RJNT 082306Z 0900/1006 24006KT 9999 FEW030 SCT060 BECMG 0902/0904 32006KT BECMG 0910/0912 18008KT

Orai ataskaitas ir orų prognozės (METAR, TAF).

turimą stotys yra geltonos ir raudonos taškus žemėlapyje.

Perkelti pele per norėdami pamatyti stoties vardą.

Tada spustelėkite, norėdami matyti oro stebėjimo ir prognozės.

Norėdami pakeisti žemėlapį: spustelėkite ant žalios mygtukų su juodo kryžiaus žemyn,; žalią mygtuką su brūkšneliu, jei norite nutolinti; arba žalių rodyklių gretimoms žemėlapius.


METAR-TAF: